createdAt,value
2023-05-24T00:00:12.239Z,3.20
2023-05-24T00:01:12.209Z,3.80
2023-05-24T00:02:12.197Z,3.20
2023-05-24T00:03:12.301Z,3.90
2023-05-24T00:04:12.299Z,3.90
2023-05-24T00:05:12.223Z,3.80
2023-05-24T00:06:12.169Z,3.60
2023-05-24T00:07:12.199Z,3.80
2023-05-24T00:08:12.171Z,4.30
2023-05-24T00:09:12.152Z,3.70
2023-05-24T00:10:12.133Z,4.40
2023-05-24T00:11:12.120Z,3.90
2023-05-24T00:12:12.146Z,4.20
2023-05-24T00:13:12.111Z,3.50
2023-05-24T00:14:12.103Z,4.30
2023-05-24T00:15:12.102Z,4.00
2023-05-24T00:16:12.131Z,3.70
2023-05-24T00:17:12.110Z,3.30
2023-05-24T00:18:12.077Z,4.00
2023-05-24T00:19:12.074Z,4.80
2023-05-24T00:20:12.155Z,3.70
2023-05-24T00:21:12.083Z,3.80
2023-05-24T00:22:12.080Z,3.30
2023-05-24T00:23:12.038Z,3.60
2023-05-24T00:24:12.035Z,3.70
2023-05-24T00:25:12.025Z,3.50
2023-05-24T00:26:12.030Z,3.70
2023-05-24T00:27:11.993Z,3.30
2023-05-24T00:28:11.997Z,4.40
2023-05-24T00:29:11.996Z,3.20
2023-05-24T00:30:11.973Z,3.60
2023-05-24T00:31:11.995Z,3.50
2023-05-24T00:32:12.012Z,3.20
2023-05-24T00:33:11.957Z,3.20
2023-05-24T00:34:11.949Z,3.60
2023-05-24T00:35:11.975Z,3.60
2023-05-24T00:36:11.957Z,3.20
2023-05-24T00:37:11.947Z,3.50
2023-05-24T00:38:11.920Z,2.80
2023-05-24T00:39:11.905Z,3.80
2023-05-24T00:40:11.928Z,3.00
2023-05-24T00:41:11.892Z,3.50
2023-05-24T00:42:11.891Z,3.60
2023-05-24T00:43:11.877Z,3.50
2023-05-24T00:44:11.872Z,3.50
2023-05-24T00:45:11.893Z,3.30
2023-05-24T00:46:11.955Z,3.40
2023-05-24T00:47:11.846Z,2.90
2023-05-24T00:48:11.840Z,3.30
2023-05-24T00:49:11.866Z,3.00
2023-05-24T00:50:11.902Z,3.70
2023-05-24T00:51:11.815Z,3.20
2023-05-24T00:52:11.810Z,3.70
2023-05-24T00:53:11.798Z,3.90
2023-05-24T00:54:11.841Z,3.10
2023-05-24T00:55:11.793Z,2.90
2023-05-24T00:56:11.774Z,3.20
2023-05-24T00:57:11.777Z,2.80
2023-05-24T00:58:11.761Z,2.90
2023-05-24T00:59:11.778Z,3.10
2023-05-24T01:00:11.738Z,3.00
2023-05-24T01:01:11.780Z,3.30
2023-05-24T01:02:11.726Z,3.20
2023-05-24T01:03:11.791Z,2.80
2023-05-24T01:04:11.745Z,2.90
2023-05-24T01:05:11.727Z,2.90
2023-05-24T01:06:11.707Z,2.80
2023-05-24T01:07:11.688Z,3.60
2023-05-24T01:08:11.732Z,2.80
2023-05-24T01:09:11.674Z,3.00
2023-05-24T01:10:11.678Z,3.20
2023-05-24T01:11:11.661Z,3.30
2023-05-24T01:12:11.654Z,2.80
2023-05-24T01:13:11.677Z,3.20
2023-05-24T01:14:11.646Z,3.50
2023-05-24T01:15:11.631Z,2.80
2023-05-24T01:16:11.700Z,3.40
2023-05-24T01:17:11.616Z,3.10
2023-05-24T01:18:11.646Z,2.90
2023-05-24T01:19:11.597Z,2.80
2023-05-24T01:20:11.642Z,3.00
2023-05-24T01:21:11.585Z,3.10
2023-05-24T01:22:11.629Z,2.80
2023-05-24T01:23:11.587Z,2.80
2023-05-24T01:24:11.570Z,4.20
2023-05-24T01:25:11.555Z,3.10
2023-05-24T01:26:11.559Z,2.80
2023-05-24T01:27:11.584Z,2.60
2023-05-24T01:28:11.540Z,3.00
2023-05-24T01:29:11.533Z,3.30
2023-05-24T01:30:11.526Z,2.60
2023-05-24T01:31:11.588Z,2.80
2023-05-24T01:32:11.529Z,3.00
2023-05-24T01:33:11.490Z,3.40
2023-05-24T01:34:11.483Z,3.20
2023-05-24T01:35:11.472Z,3.20
2023-05-24T01:36:11.525Z,3.80
2023-05-24T01:37:11.493Z,3.10
2023-05-24T01:38:11.456Z,3.00
2023-05-24T01:39:11.445Z,2.30
2023-05-24T01:40:11.442Z,3.30
2023-05-24T01:41:11.453Z,3.10
2023-05-24T01:42:11.443Z,3.00
2023-05-24T01:43:11.412Z,3.50
2023-05-24T01:44:11.410Z,3.40
2023-05-24T01:45:11.392Z,3.20
2023-05-24T01:46:11.414Z,3.50
2023-05-24T01:47:11.576Z,3.50
2023-05-24T01:48:11.377Z,3.30
2023-05-24T01:49:11.371Z,3.70
2023-05-24T01:50:11.365Z,3.30
2023-05-24T01:51:11.386Z,2.70
2023-05-24T01:52:11.385Z,4.30
2023-05-24T01:53:11.337Z,3.10
2023-05-24T01:54:11.341Z,2.70
2023-05-24T01:55:11.322Z,3.20
2023-05-24T01:56:11.341Z,3.40
2023-05-24T01:57:11.312Z,3.50
2023-05-24T01:58:11.299Z,2.80
2023-05-24T01:59:11.290Z,3.20
2023-05-24T02:00:11.330Z,3.80
2023-05-24T02:01:11.317Z,3.20
2023-05-24T02:02:11.300Z,3.20
2023-05-24T02:03:11.281Z,3.50
2023-05-24T02:04:11.257Z,3.30
2023-05-24T02:05:11.267Z,3.70
2023-05-24T02:06:11.235Z,3.30
2023-05-24T02:07:11.233Z,3.80
2023-05-24T02:08:11.248Z,2.90
2023-05-24T02:09:11.218Z,3.20
2023-05-24T02:10:11.225Z,4.20
2023-05-24T02:11:11.197Z,3.80
2023-05-24T02:12:11.188Z,3.70
2023-05-24T02:13:11.174Z,4.00
2023-05-24T02:14:11.207Z,3.70
2023-05-24T02:15:11.199Z,4.10
2023-05-24T02:16:11.176Z,4.10
2023-05-24T02:17:11.164Z,3.60
2023-05-24T02:18:11.144Z,3.70
2023-05-24T02:19:11.157Z,4.00
2023-05-24T02:20:11.234Z,3.60
2023-05-24T02:21:11.114Z,4.10
2023-05-24T02:22:11.107Z,3.50
2023-05-24T02:23:11.128Z,4.00
2023-05-24T02:24:11.120Z,3.30
2023-05-24T02:25:11.104Z,4.30
2023-05-24T02:26:11.083Z,4.00
2023-05-24T02:27:11.081Z,3.40
2023-05-24T02:28:11.114Z,3.40
2023-05-24T02:29:11.062Z,3.70
2023-05-24T02:30:11.060Z,3.80
2023-05-24T02:31:11.077Z,4.10
2023-05-24T02:32:11.038Z,4.40
2023-05-24T02:33:11.128Z,4.00
2023-05-24T02:34:11.016Z,4.20
2023-05-24T02:35:11.016Z,3.40
2023-05-24T02:36:11.037Z,4.50
2023-05-24T02:37:11.016Z,3.80
2023-05-24T02:38:11.020Z,3.70
2023-05-24T02:39:10.981Z,3.60
2023-05-24T02:40:10.970Z,3.90
2023-05-24T02:41:10.959Z,3.40
2023-05-24T02:42:10.983Z,3.70
2023-05-24T02:43:10.952Z,3.80
2023-05-24T02:44:10.935Z,3.60
2023-05-24T02:45:10.933Z,3.90
2023-05-24T02:46:10.958Z,3.70
2023-05-24T02:47:10.946Z,4.30
2023-05-24T02:48:10.928Z,3.80
2023-05-24T02:49:10.906Z,3.80
2023-05-24T02:50:10.887Z,3.80
2023-05-24T02:51:10.913Z,4.40
2023-05-24T02:52:10.905Z,4.30
2023-05-24T02:53:10.866Z,4.90
2023-05-24T02:54:10.863Z,4.40
2023-05-24T02:55:10.854Z,4.30
2023-05-24T02:56:10.869Z,4.70
2023-05-24T02:57:10.868Z,3.60
2023-05-24T02:58:10.820Z,4.50
2023-05-24T02:59:10.824Z,3.90
2023-05-24T03:00:10.825Z,4.30
2023-05-24T03:01:10.826Z,4.20
2023-05-24T03:02:10.799Z,4.10
2023-05-24T03:03:10.910Z,4.10
2023-05-24T03:04:10.871Z,4.30
2023-05-24T03:05:10.784Z,4.20
2023-05-24T03:06:10.787Z,4.40
2023-05-24T03:07:10.769Z,4.60
2023-05-24T03:08:10.753Z,3.80
2023-05-24T03:09:10.738Z,3.70
2023-05-24T03:10:10.752Z,3.60
2023-05-24T03:11:10.739Z,3.80
2023-05-24T03:12:10.716Z,3.70
2023-05-24T03:13:10.710Z,4.00
2023-05-24T03:14:10.707Z,4.10
2023-05-24T03:15:10.776Z,4.20
2023-05-24T03:16:10.725Z,3.60
2023-05-24T03:17:10.679Z,4.00
2023-05-24T03:18:10.703Z,3.90
2023-05-24T03:19:10.655Z,4.60
2023-05-24T03:20:10.731Z,4.10
2023-05-24T03:21:10.677Z,4.00
2023-05-24T03:22:10.640Z,4.20
2023-05-24T03:23:10.622Z,3.40
2023-05-24T03:24:10.616Z,4.40
2023-05-24T03:25:10.636Z,3.70
2023-05-24T03:26:10.607Z,4.20
2023-05-24T03:27:10.597Z,4.20
2023-05-24T03:28:10.601Z,4.40
2023-05-24T03:29:10.608Z,4.60
2023-05-24T03:30:10.606Z,4.10
2023-05-24T03:31:10.630Z,4.30
2023-05-24T03:32:10.557Z,4.20
2023-05-24T03:33:10.610Z,4.60
2023-05-24T03:34:10.567Z,3.80
2023-05-24T03:35:10.540Z,4.00
2023-05-24T03:36:10.534Z,3.10
2023-05-24T03:37:10.546Z,3.40
2023-05-24T03:38:10.516Z,3.80
2023-05-24T03:39:10.535Z,4.00
2023-05-24T03:40:10.503Z,3.90
2023-05-24T03:41:10.497Z,4.10
2023-05-24T03:42:10.486Z,4.50
2023-05-24T03:43:10.498Z,3.60
2023-05-24T03:44:10.511Z,3.80
2023-05-24T03:45:10.473Z,3.50
2023-05-24T03:46:10.480Z,4.10
2023-05-24T03:47:10.445Z,3.40
2023-05-24T03:48:10.478Z,3.60
2023-05-24T03:49:10.430Z,3.90
2023-05-24T03:50:10.424Z,3.70
2023-05-24T03:51:10.408Z,3.80
2023-05-24T03:52:10.403Z,3.20
2023-05-24T03:53:10.418Z,3.70
2023-05-24T03:54:10.389Z,4.00
2023-05-24T03:55:10.395Z,3.10
2023-05-24T03:56:10.366Z,3.70
2023-05-24T03:57:10.366Z,3.60
2023-05-24T03:58:10.377Z,3.10
2023-05-24T03:59:10.353Z,3.20
2023-05-24T04:00:10.336Z,3.10
2023-05-24T04:01:18.837Z,4.00
2023-05-24T04:02:12.325Z,3.50
2023-05-24T04:03:10.398Z,3.30
2023-05-24T04:04:10.337Z,3.10
2023-05-24T04:05:10.295Z,3.10
2023-05-24T04:06:10.291Z,2.90
2023-05-24T04:07:10.312Z,3.00
2023-05-24T04:08:10.301Z,2.90
2023-05-24T04:09:10.278Z,3.00
2023-05-24T04:10:10.257Z,3.10
2023-05-24T04:11:10.250Z,3.10
2023-05-24T04:12:10.274Z,2.80
2023-05-24T04:13:10.265Z,2.80
2023-05-24T04:14:10.223Z,3.40
2023-05-24T04:15:10.241Z,3.40
2023-05-24T04:16:10.214Z,2.50
2023-05-24T04:17:10.347Z,2.90
2023-05-24T04:18:10.313Z,2.70
2023-05-24T04:19:10.194Z,2.70
2023-05-24T04:20:10.288Z,3.20
2023-05-24T04:21:10.173Z,2.90
2023-05-24T04:22:10.191Z,2.70
2023-05-24T04:23:10.150Z,3.20
2023-05-24T04:24:10.141Z,2.70
2023-05-24T04:25:10.249Z,2.60
2023-05-24T04:26:10.129Z,3.00
2023-05-24T04:27:10.149Z,2.80
2023-05-24T04:28:10.131Z,2.00
2023-05-24T04:29:10.126Z,2.50
2023-05-24T04:30:10.093Z,2.30
2023-05-24T04:31:10.177Z,2.30
2023-05-24T04:32:10.117Z,2.30
2023-05-24T04:33:10.170Z,2.30
2023-05-24T04:34:10.064Z,2.40
2023-05-24T04:35:10.063Z,2.40
2023-05-24T04:36:10.091Z,2.50
2023-05-24T04:37:10.046Z,2.00
2023-05-24T04:38:10.034Z,2.10
2023-05-24T04:39:10.046Z,2.90
2023-05-24T04:40:10.026Z,2.40
2023-05-24T04:41:10.055Z,2.20
2023-05-24T04:42:10.024Z,2.70
2023-05-24T04:43:10.000Z,2.30
2023-05-24T04:44:09.992Z,2.40
2023-05-24T04:45:09.996Z,2.20
2023-05-24T04:46:10.012Z,2.30
2023-05-24T04:47:09.970Z,2.90
2023-05-24T04:48:09.965Z,2.70
2023-05-24T04:49:09.957Z,2.90
2023-05-24T04:50:10.005Z,2.70
2023-05-24T04:51:09.963Z,2.70
2023-05-24T04:52:09.924Z,2.40
2023-05-24T04:53:09.929Z,2.70
2023-05-24T04:54:09.910Z,3.00
2023-05-24T04:55:09.927Z,2.90
2023-05-24T04:56:09.899Z,2.90
2023-05-24T04:57:09.884Z,3.00
2023-05-24T04:58:10.810Z,3.10
2023-05-24T04:59:09.884Z,3.10
2023-05-24T05:00:09.892Z,2.70
2023-05-24T05:01:09.855Z,3.10
2023-05-24T05:02:09.923Z,3.30
2023-05-24T05:03:09.918Z,3.20
2023-05-24T05:04:09.883Z,3.20
2023-05-24T05:05:09.850Z,3.00
2023-05-24T05:06:09.815Z,3.10
2023-05-24T05:07:09.815Z,3.50
2023-05-24T05:08:09.876Z,3.10
2023-05-24T05:09:09.813Z,3.10
2023-05-24T05:10:09.822Z,3.50
2023-05-24T05:11:09.790Z,3.00
2023-05-24T05:12:09.773Z,3.20
2023-05-24T05:13:09.769Z,3.00
2023-05-24T05:14:09.912Z,3.00
2023-05-24T05:15:09.752Z,3.90
2023-05-24T05:16:09.774Z,3.10
2023-05-24T05:17:09.729Z,3.30
2023-05-24T05:18:09.766Z,3.30
2023-05-24T05:19:09.745Z,2.70
2023-05-24T05:20:09.736Z,3.20
2023-05-24T05:21:09.701Z,3.00
2023-05-24T05:22:09.695Z,2.90
2023-05-24T05:23:09.701Z,3.20
2023-05-24T05:24:09.695Z,3.50
2023-05-24T05:25:09.661Z,3.60
2023-05-24T05:26:09.669Z,3.90
2023-05-24T05:27:09.660Z,3.50
2023-05-24T05:28:09.661Z,3.20
2023-05-24T05:29:09.654Z,3.40
2023-05-24T05:30:09.640Z,3.30
2023-05-24T05:31:09.619Z,3.70
2023-05-24T05:32:09.672Z,3.30
2023-05-24T05:33:09.785Z,4.40
2023-05-24T05:34:09.601Z,3.50
2023-05-24T05:35:09.590Z,3.50
2023-05-24T05:36:09.579Z,4.20
2023-05-24T05:37:09.570Z,4.30
2023-05-24T05:38:09.625Z,3.30
2023-05-24T05:39:09.584Z,4.00
2023-05-24T05:40:09.545Z,3.90
2023-05-24T05:41:09.536Z,3.80
2023-05-24T05:42:09.563Z,3.50
2023-05-24T05:43:09.552Z,3.30
2023-05-24T05:44:09.523Z,4.30
2023-05-24T05:45:09.502Z,4.10
2023-05-24T05:46:09.536Z,3.80
2023-05-24T05:47:09.535Z,3.60
2023-05-24T05:48:09.546Z,3.60
2023-05-24T05:49:09.484Z,4.20
2023-05-24T05:50:09.474Z,3.50
2023-05-24T05:51:09.459Z,3.70
2023-05-24T05:52:09.483Z,3.60
2023-05-24T05:53:09.445Z,4.00
2023-05-24T05:54:09.438Z,4.30
2023-05-24T05:55:09.435Z,4.70
2023-05-24T05:56:09.435Z,3.80
2023-05-24T05:57:09.460Z,4.10
2023-05-24T05:58:10.412Z,3.80
2023-05-24T05:59:09.406Z,5.40
2023-05-24T06:00:09.397Z,4.00
2023-05-24T06:01:09.415Z,4.30
2023-05-24T06:02:09.502Z,4.10
2023-05-24T06:03:09.471Z,4.60
2023-05-24T06:04:09.477Z,4.10
2023-05-24T06:05:09.365Z,4.50
2023-05-24T06:06:09.369Z,4.50
2023-05-24T06:07:09.342Z,4.60
2023-05-24T06:08:09.354Z,5.40
2023-05-24T06:09:09.326Z,4.10
2023-05-24T06:10:09.322Z,4.80
2023-05-24T06:11:09.329Z,4.70
2023-05-24T06:12:09.300Z,4.10
2023-05-24T06:13:09.299Z,5.50
2023-05-24T06:14:09.288Z,5.00
2023-05-24T06:15:09.286Z,4.60
2023-05-24T06:16:09.343Z,5.00
2023-05-24T06:17:09.286Z,4.40
2023-05-24T06:18:09.255Z,5.00
2023-05-24T06:19:09.236Z,4.30
2023-05-24T06:20:09.291Z,4.70
2023-05-24T06:21:09.252Z,4.00
2023-05-24T06:22:09.223Z,4.40
2023-05-24T06:23:09.209Z,5.40
2023-05-24T06:24:09.201Z,4.80
2023-05-24T06:25:09.226Z,4.80
2023-05-24T06:26:09.190Z,4.10
2023-05-24T06:27:09.195Z,4.90
2023-05-24T06:28:09.170Z,5.40
2023-05-24T06:29:09.157Z,4.60
2023-05-24T06:30:09.193Z,4.30
2023-05-24T06:31:09.200Z,4.40
2023-05-24T06:32:09.135Z,5.10
2023-05-24T06:33:09.129Z,5.40
2023-05-24T06:34:09.148Z,5.40
2023-05-24T06:35:09.135Z,4.20
2023-05-24T06:36:09.110Z,5.50
2023-05-24T06:37:09.103Z,4.40
2023-05-24T06:38:09.109Z,4.20
2023-05-24T06:39:09.111Z,4.00
2023-05-24T06:40:09.081Z,4.40
2023-05-24T06:41:09.067Z,4.50
2023-05-24T06:42:09.082Z,4.80
2023-05-24T06:43:09.051Z,4.60
2023-05-24T06:44:09.064Z,5.00
2023-05-24T06:45:09.038Z,3.90
2023-05-24T06:46:09.028Z,4.80
2023-05-24T06:47:09.045Z,4.60
2023-05-24T06:48:09.074Z,4.40
2023-05-24T06:49:09.084Z,4.50
2023-05-24T06:50:09.010Z,4.90
2023-05-24T06:51:08.982Z,4.60
2023-05-24T06:52:08.998Z,4.80
2023-05-24T06:53:09.016Z,3.80
2023-05-24T06:54:08.968Z,4.40
2023-05-24T06:55:09.012Z,5.10
2023-05-24T06:56:08.946Z,4.40
2023-05-24T06:57:08.968Z,4.70
2023-05-24T06:58:09.023Z,4.40
2023-05-24T06:59:08.931Z,4.70
2023-05-24T07:00:08.922Z,4.80
2023-05-24T07:01:08.974Z,5.00
2023-05-24T07:02:08.918Z,4.90
2023-05-24T07:03:08.940Z,4.10
2023-05-24T07:04:08.911Z,4.50
2023-05-24T07:05:08.881Z,4.30
2023-05-24T07:06:08.872Z,4.60
2023-05-24T07:07:08.892Z,5.50
2023-05-24T07:08:08.877Z,4.90
2023-05-24T07:09:08.844Z,4.90
2023-05-24T07:10:08.903Z,5.30
2023-05-24T07:11:08.881Z,5.40
2023-05-24T07:12:09.112Z,4.90
2023-05-24T07:13:08.820Z,4.30
2023-05-24T07:14:08.817Z,4.50
2023-05-24T07:15:08.807Z,5.50
2023-05-24T07:16:08.796Z,5.00
2023-05-24T07:17:08.906Z,4.80
2023-05-24T07:18:08.929Z,5.40
2023-05-24T07:19:08.762Z,4.50
2023-05-24T07:20:08.780Z,4.70
2023-05-24T07:21:08.746Z,5.40
2023-05-24T07:22:08.778Z,4.20
2023-05-24T07:23:08.735Z,6.00
2023-05-24T07:24:08.724Z,8.90
2023-05-24T07:25:08.718Z,12.90
2023-05-24T07:26:08.735Z,8.50
2023-05-24T07:27:08.741Z,7.60
2023-05-24T07:28:08.696Z,7.40
2023-05-24T07:29:08.688Z,6.10
2023-05-24T07:30:19.729Z,5.00
2023-05-24T07:31:10.695Z,4.70
2023-05-24T07:32:08.728Z,5.20
2023-05-24T07:33:08.686Z,6.30
2023-05-24T07:34:08.677Z,5.20
2023-05-24T07:35:08.642Z,5.50
2023-05-24T07:36:08.657Z,4.70
2023-05-24T07:37:08.625Z,5.40
2023-05-24T07:38:08.622Z,4.00
2023-05-24T07:39:08.611Z,3.60
2023-05-24T07:40:08.629Z,4.70
2023-05-24T07:41:08.619Z,4.50
2023-05-24T07:42:08.592Z,4.70
2023-05-24T07:43:08.596Z,4.50
2023-05-24T07:44:08.579Z,4.00
2023-05-24T07:45:08.587Z,5.70
2023-05-24T07:46:08.578Z,6.80
2023-05-24T07:47:08.546Z,7.40
2023-05-24T07:48:08.611Z,6.60
2023-05-24T07:49:08.541Z,6.60
2023-05-24T07:50:08.550Z,8.80
2023-05-24T07:51:08.513Z,7.30
2023-05-24T07:52:08.513Z,5.80
2023-05-24T07:53:08.512Z,5.80
2023-05-24T07:54:08.525Z,5.00
2023-05-24T07:55:08.502Z,4.50
2023-05-24T07:56:08.474Z,4.50
2023-05-24T07:57:09.426Z,4.50
2023-05-24T07:58:09.455Z,5.30
2023-05-24T07:59:08.479Z,5.80
2023-05-24T08:00:08.468Z,4.50
2023-05-24T08:01:08.434Z,5.70
2023-05-24T08:02:08.423Z,4.90
2023-05-24T08:03:08.610Z,4.70
2023-05-24T08:04:08.530Z,4.30
2023-05-24T08:05:08.406Z,5.20
2023-05-24T08:06:08.395Z,4.80
2023-05-24T08:07:10.767Z,4.90
2023-05-24T08:08:08.379Z,5.00
2023-05-24T08:09:08.399Z,5.80
2023-05-24T08:10:08.366Z,5.00
2023-05-24T08:11:08.422Z,4.70
2023-05-24T08:12:08.356Z,5.20
2023-05-24T08:13:08.386Z,4.80
2023-05-24T08:14:08.355Z,4.70
2023-05-24T08:15:08.329Z,4.30
2023-05-24T08:16:08.353Z,4.10
2023-05-24T08:17:08.310Z,4.60
2023-05-24T08:18:08.373Z,4.50
2023-05-24T08:19:08.285Z,4.50
2023-05-24T08:20:08.328Z,4.70
2023-05-24T08:21:08.270Z,3.90
2023-05-24T08:22:08.271Z,4.40
2023-05-24T08:23:08.278Z,4.50
2023-05-24T08:24:09.626Z,4.30
2023-05-24T08:25:09.242Z,4.00
2023-05-24T08:26:08.243Z,3.80
2023-05-24T08:27:08.248Z,4.50
2023-05-24T08:28:08.321Z,4.80
2023-05-24T08:29:08.212Z,4.40
2023-05-24T08:30:08.209Z,5.70
2023-05-24T08:31:08.197Z,5.30
2023-05-24T08:32:08.314Z,5.60
2023-05-24T08:33:08.227Z,5.30
2023-05-24T08:34:08.182Z,4.80
2023-05-24T08:35:20.265Z,3.90
2023-05-24T08:36:10.178Z,3.70
2023-05-24T08:37:08.176Z,4.00
2023-05-24T08:38:08.159Z,4.10
2023-05-24T08:39:08.151Z,3.90
2023-05-24T08:40:08.132Z,4.20
2023-05-24T08:41:08.128Z,4.10
2023-05-24T08:42:10.089Z,3.50
2023-05-24T08:43:09.119Z,3.90
2023-05-24T08:44:08.121Z,3.70
2023-05-24T08:45:08.104Z,3.60
2023-05-24T08:46:08.148Z,3.30
2023-05-24T08:47:08.102Z,3.70
2023-05-24T08:48:08.163Z,3.60
2023-05-24T08:49:08.184Z,3.50
2023-05-24T08:50:08.058Z,4.20
2023-05-24T08:51:08.092Z,4.10
2023-05-24T08:52:08.041Z,3.90
2023-05-24T08:53:08.037Z,4.00
2023-05-24T08:54:08.021Z,3.90
2023-05-24T08:55:08.038Z,4.70
2023-05-24T08:56:08.039Z,3.60
2023-05-24T08:57:08.009Z,4.10
2023-05-24T08:58:08.003Z,3.90
2023-05-24T08:59:07.992Z,3.80
2023-05-24T09:00:08.006Z,3.80
2023-05-24T09:01:08.042Z,3.40
2023-05-24T09:02:07.992Z,3.60
2023-05-24T09:03:08.072Z,3.40
2023-05-24T09:04:07.974Z,3.50
2023-05-24T09:05:07.972Z,3.80
2023-05-24T09:06:07.940Z,3.70
2023-05-24T09:07:07.927Z,3.50
2023-05-24T09:08:07.924Z,4.10
2023-05-24T09:09:07.911Z,4.20
2023-05-24T09:10:07.955Z,4.70
2023-05-24T09:11:07.898Z,3.80
2023-05-24T09:12:07.889Z,3.60
2023-05-24T09:13:07.880Z,3.50
2023-05-24T09:14:07.920Z,4.30
2023-05-24T09:15:08.125Z,3.60
2023-05-24T09:16:07.915Z,3.30
2023-05-24T09:17:07.857Z,3.40
2023-05-24T09:18:07.937Z,3.30
2023-05-24T09:19:07.878Z,3.90
2023-05-24T09:20:07.832Z,4.10
2023-05-24T09:21:07.815Z,3.10
2023-05-24T09:22:07.817Z,4.00
2023-05-24T09:23:07.796Z,3.60
2023-05-24T09:24:07.810Z,4.00
2023-05-24T09:25:07.783Z,3.70
2023-05-24T09:26:07.776Z,3.40
2023-05-24T09:27:07.768Z,3.70
2023-05-24T09:28:07.757Z,3.40
2023-05-24T09:29:07.774Z,4.10
2023-05-24T09:30:07.733Z,3.30
2023-05-24T09:31:08.279Z,3.40
2023-05-24T09:32:08.726Z,3.40
2023-05-24T09:33:07.757Z,3.50
2023-05-24T09:34:07.737Z,3.50
2023-05-24T09:35:07.714Z,3.70
2023-05-24T09:36:07.694Z,3.00
2023-05-24T09:37:07.681Z,3.20
2023-05-24T09:38:07.696Z,3.70
2023-05-24T09:39:07.665Z,3.50
2023-05-24T09:40:07.659Z,3.60
2023-05-24T09:41:08.783Z,3.90
2023-05-24T09:42:07.662Z,3.80
2023-05-24T09:43:07.698Z,3.70
2023-05-24T09:44:07.634Z,3.30
2023-05-24T09:45:07.624Z,3.30
2023-05-24T09:46:07.619Z,3.50
2023-05-24T09:47:07.694Z,3.60
2023-05-24T09:48:07.706Z,3.70
2023-05-24T09:49:07.609Z,3.50
2023-05-24T09:50:07.640Z,3.40
2023-05-24T09:51:07.689Z,3.40
2023-05-24T09:52:07.654Z,3.40
2023-05-24T09:53:07.560Z,3.40
2023-05-24T09:54:07.550Z,3.60
2023-05-24T09:55:07.554Z,3.90
2023-05-24T09:56:07.555Z,3.40
2023-05-24T09:57:07.556Z,3.40
2023-05-24T09:58:07.543Z,3.40
2023-05-24T09:59:07.524Z,3.40
2023-05-24T10:00:07.529Z,3.70
2023-05-24T10:01:07.557Z,3.50
2023-05-24T10:02:07.533Z,3.60
2023-05-24T10:03:07.567Z,3.80
2023-05-24T10:04:09.877Z,3.40
2023-05-24T10:05:08.476Z,3.70
2023-05-24T10:06:07.487Z,3.40
2023-05-24T10:07:07.480Z,4.30
2023-05-24T10:08:07.448Z,4.00
2023-05-24T10:09:07.470Z,4.10
2023-05-24T10:10:07.675Z,4.30
2023-05-24T10:11:09.201Z,3.60
2023-05-24T10:12:07.408Z,4.30
2023-05-24T10:13:07.405Z,4.00
2023-05-24T10:14:07.389Z,4.10
2023-05-24T10:15:07.387Z,4.00
2023-05-24T10:16:07.462Z,3.40
2023-05-24T10:17:07.414Z,3.60
2023-05-24T10:18:08.191Z,3.70
2023-05-24T10:19:07.465Z,3.60
2023-05-24T10:20:07.461Z,3.80
2023-05-24T10:21:07.415Z,3.40
2023-05-24T10:22:07.335Z,3.50
2023-05-24T10:23:07.318Z,3.50
2023-05-24T10:24:08.977Z,3.20
2023-05-24T10:25:07.336Z,3.20
2023-05-24T10:26:07.309Z,3.60
2023-05-24T10:27:07.307Z,3.70
2023-05-24T10:28:08.155Z,3.60
2023-05-24T10:29:07.294Z,3.20
2023-05-24T10:30:10.116Z,3.70
2023-05-24T10:31:09.314Z,4.40
2023-05-24T10:32:07.248Z,3.60
2023-05-24T10:33:07.256Z,3.60
2023-05-24T10:34:08.736Z,4.30
2023-05-24T10:35:08.253Z,4.20
2023-05-24T10:36:09.474Z,3.40
2023-05-24T10:37:08.208Z,4.00
2023-05-24T10:38:07.554Z,3.40
2023-05-24T10:39:07.252Z,3.50
2023-05-24T10:40:07.230Z,3.60
2023-05-24T10:41:07.192Z,4.20
2023-05-24T10:42:09.591Z,3.50
2023-05-24T10:43:08.154Z,3.50
2023-05-24T10:44:10.131Z,3.80
2023-05-24T10:45:08.132Z,3.30
2023-05-24T10:46:07.137Z,3.70
2023-05-24T10:47:07.150Z,3.40
2023-05-24T10:48:07.221Z,3.40
2023-05-24T10:49:07.128Z,3.40
2023-05-24T10:50:07.108Z,3.60
2023-05-24T10:51:07.093Z,3.50
2023-05-24T10:52:07.101Z,3.60
2023-05-24T10:53:07.121Z,3.40
2023-05-24T10:54:08.996Z,3.80
2023-05-24T10:55:08.081Z,3.60
2023-05-24T10:56:07.060Z,3.10
2023-05-24T10:57:07.058Z,3.20
2023-05-24T10:58:07.061Z,3.30
2023-05-24T10:59:07.060Z,3.20
2023-05-24T11:00:09.064Z,3.10
2023-05-24T11:01:07.017Z,3.70
2023-05-24T11:02:07.082Z,3.40
2023-05-24T11:03:07.083Z,3.40
2023-05-24T11:04:06.991Z,3.30
2023-05-24T11:05:07.005Z,3.70
2023-05-24T11:06:07.066Z,3.20
2023-05-24T11:07:06.969Z,3.40
2023-05-24T11:08:06.999Z,3.70
2023-05-24T11:09:06.959Z,3.80
2023-05-24T11:10:06.973Z,3.50
2023-05-24T11:11:22.285Z,3.30
2023-05-24T11:12:08.972Z,4.00
2023-05-24T11:13:06.963Z,3.50
2023-05-24T11:14:06.917Z,3.60
2023-05-24T11:15:06.905Z,4.10
2023-05-24T11:16:06.932Z,3.60
2023-05-24T11:17:06.948Z,3.10
2023-05-24T11:18:06.939Z,3.30
2023-05-24T11:19:06.897Z,3.40
2023-05-24T11:20:06.907Z,3.20
2023-05-24T11:21:06.880Z,3.90
2023-05-24T11:22:06.912Z,3.50
2023-05-24T11:23:06.847Z,3.30
2023-05-24T11:24:06.840Z,3.40
2023-05-24T11:25:06.850Z,3.30
2023-05-24T11:26:06.850Z,3.30
2023-05-24T11:27:06.841Z,3.20
2023-05-24T11:28:06.865Z,3.10
2023-05-24T11:29:07.694Z,3.20
2023-05-24T11:30:06.804Z,3.80
2023-05-24T11:31:06.924Z,3.50
2023-05-24T11:32:06.805Z,3.40
2023-05-24T11:33:06.825Z,3.40
2023-05-24T11:34:06.777Z,3.60
2023-05-24T11:35:06.765Z,3.20
2023-05-24T11:36:06.780Z,2.70
2023-05-24T11:37:06.752Z,3.20
2023-05-24T11:38:06.731Z,2.80
2023-05-24T11:39:06.724Z,2.90
2023-05-24T11:40:06.738Z,3.50
2023-05-24T11:41:07.722Z,3.40
2023-05-24T11:42:06.812Z,3.40
2023-05-24T11:43:06.688Z,3.70
2023-05-24T11:44:06.693Z,2.80
2023-05-24T11:45:06.703Z,3.30
2023-05-24T11:46:06.707Z,3.00
2023-05-24T11:47:06.662Z,3.10
2023-05-24T11:48:06.715Z,2.90
2023-05-24T11:49:06.654Z,3.40
2023-05-24T11:50:06.660Z,3.80
2023-05-24T11:51:06.624Z,3.90
2023-05-24T11:52:06.624Z,3.20
2023-05-24T11:53:06.620Z,3.60
2023-05-24T11:54:06.627Z,3.10
2023-05-24T11:55:06.630Z,3.20
2023-05-24T11:56:06.577Z,2.90
2023-05-24T11:57:07.593Z,2.60
2023-05-24T11:58:06.588Z,3.50
2023-05-24T11:59:06.593Z,2.90
2023-05-24T12:00:06.574Z,3.10
2023-05-24T12:01:06.556Z,2.70
2023-05-24T12:02:06.612Z,2.70
2023-05-24T12:03:06.590Z,3.40
2023-05-24T12:04:06.692Z,3.20
2023-05-24T12:05:06.697Z,3.10
2023-05-24T12:06:06.508Z,3.30
2023-05-24T12:07:06.508Z,3.50
2023-05-24T12:08:06.494Z,3.60
2023-05-24T12:09:06.516Z,3.00
2023-05-24T12:10:06.480Z,3.40
2023-05-24T12:11:06.484Z,3.60
2023-05-24T12:12:06.468Z,3.10
2023-05-24T12:13:06.478Z,2.90
2023-05-24T12:14:06.478Z,3.30
2023-05-24T12:15:06.435Z,3.60
2023-05-24T12:16:06.473Z,3.30
2023-05-24T12:17:06.421Z,3.30
2023-05-24T12:18:06.487Z,3.50
2023-05-24T12:19:13.985Z,2.80
2023-05-24T12:20:08.433Z,2.70
2023-05-24T12:21:06.392Z,3.20
2023-05-24T12:22:06.709Z,3.10
2023-05-24T12:23:06.403Z,3.70
2023-05-24T12:24:06.365Z,3.80
2023-05-24T12:25:06.361Z,4.00
2023-05-24T12:26:06.351Z,3.20
2023-05-24T12:27:06.334Z,3.10
2023-05-24T12:28:06.369Z,2.90
2023-05-24T12:29:06.325Z,3.40
2023-05-24T12:30:06.318Z,3.00
2023-05-24T12:31:06.328Z,3.30
2023-05-24T12:32:06.323Z,3.60
2023-05-24T12:33:06.335Z,3.30
2023-05-24T12:34:06.285Z,3.20
2023-05-24T12:35:06.275Z,3.20
2023-05-24T12:36:06.263Z,3.50
2023-05-24T12:37:06.289Z,3.30
2023-05-24T12:38:06.258Z,2.90
2023-05-24T12:39:06.249Z,3.50
2023-05-24T12:40:06.236Z,3.80
2023-05-24T12:41:12.383Z,3.80
2023-05-24T12:42:08.257Z,2.80
2023-05-24T12:43:06.223Z,3.10
2023-05-24T12:44:06.202Z,2.80
2023-05-24T12:45:06.210Z,3.40
2023-05-24T12:46:06.209Z,3.00
2023-05-24T12:47:06.272Z,3.30
2023-05-24T12:48:06.208Z,3.00
2023-05-24T12:49:06.176Z,3.20
2023-05-24T12:50:06.167Z,3.30
2023-05-24T12:51:06.172Z,3.10
2023-05-24T12:52:06.633Z,3.30
2023-05-24T12:53:06.141Z,2.90
2023-05-24T12:54:06.142Z,3.40
2023-05-24T12:55:06.120Z,3.00
2023-05-24T12:56:06.154Z,3.30
2023-05-24T12:57:06.122Z,3.30
2023-05-24T12:58:06.104Z,3.10
2023-05-24T12:59:06.087Z,2.50
2023-05-24T13:00:06.120Z,2.80
2023-05-24T13:01:06.114Z,3.30
2023-05-24T13:02:06.066Z,3.30
2023-05-24T13:03:06.102Z,2.90
2023-05-24T13:04:06.058Z,3.50
2023-05-24T13:05:06.122Z,2.70
2023-05-24T13:06:06.029Z,3.40
2023-05-24T13:07:06.024Z,2.80
2023-05-24T13:08:06.038Z,2.70
2023-05-24T13:09:06.015Z,2.80
2023-05-24T13:10:06.055Z,3.20
2023-05-24T13:11:05.997Z,2.90
2023-05-24T13:12:05.986Z,2.70
2023-05-24T13:13:06.902Z,2.90
2023-05-24T13:14:05.996Z,2.60
2023-05-24T13:15:06.023Z,2.60
2023-05-24T13:16:05.967Z,3.10
2023-05-24T13:17:06.000Z,3.20
2023-05-24T13:18:05.982Z,3.30